createdAt,value
2019-03-04T00:00:15.586Z,95.69
2019-03-04T00:01:16.060Z,95.70
2019-03-04T00:02:16.530Z,95.73
2019-03-04T00:03:17.004Z,95.71
2019-03-04T00:04:17.478Z,95.69
2019-03-04T00:05:17.946Z,95.73
2019-03-04T00:06:18.418Z,95.71
2019-03-04T00:07:18.890Z,95.73
2019-03-04T00:08:19.363Z,95.69
2019-03-04T00:09:19.839Z,95.73
2019-03-04T00:10:20.330Z,95.73
2019-03-04T00:11:20.779Z,95.71
2019-03-04T00:12:21.249Z,95.70
2019-03-04T00:13:21.723Z,95.73
2019-03-04T00:14:22.192Z,95.73
2019-03-04T00:15:22.668Z,95.71
2019-03-04T00:16:23.137Z,95.73
2019-03-04T00:17:23.615Z,95.73
2019-03-04T00:18:24.080Z,95.71
2019-03-04T00:19:24.556Z,95.73
2019-03-04T00:20:25.024Z,95.70
2019-03-04T00:21:25.497Z,95.70
2019-03-04T00:22:25.968Z,95.74
2019-03-04T00:23:26.440Z,95.72
2019-03-04T00:24:26.912Z,95.72
2019-03-04T00:25:27.385Z,95.74
2019-03-04T00:26:27.859Z,95.74
2019-03-04T00:27:28.329Z,95.71
2019-03-04T00:28:28.799Z,95.74
2019-03-04T00:29:29.271Z,95.74
2019-03-04T00:30:29.747Z,95.74
2019-03-04T00:31:30.218Z,95.74
2019-03-04T00:32:30.686Z,95.70
2019-03-04T00:33:31.162Z,95.74
2019-03-04T00:34:31.633Z,95.74
2019-03-04T00:35:32.104Z,95.70
2019-03-04T00:36:32.576Z,95.74
2019-03-04T00:37:33.048Z,95.74
2019-03-04T00:38:33.523Z,95.74
2019-03-04T00:39:33.993Z,95.74
2019-03-04T00:40:34.462Z,95.70
2019-03-04T00:41:34.936Z,95.74
2019-03-04T00:42:35.410Z,95.74
2019-03-04T00:43:35.880Z,95.74
2019-03-04T00:44:36.351Z,95.74
2019-03-04T00:45:36.826Z,95.72
2019-03-04T00:46:37.303Z,95.74
2019-03-04T00:47:37.769Z,95.74
2019-03-04T00:48:38.241Z,95.74
2019-03-04T00:49:38.711Z,95.74
2019-03-04T00:50:39.187Z,95.71
2019-03-04T00:51:39.683Z,95.74
2019-03-04T00:52:40.129Z,95.74
2019-03-04T00:53:40.601Z,95.74
2019-03-04T00:54:41.074Z,95.72
2019-03-04T00:55:41.546Z,95.73
2019-03-04T00:56:42.019Z,95.74
2019-03-04T00:57:42.492Z,95.74
2019-03-04T00:58:42.962Z,95.74
2019-03-04T00:59:43.440Z,95.75
2019-03-04T01:00:43.904Z,95.75
2019-03-04T01:01:44.379Z,95.74
2019-03-04T01:02:44.849Z,95.74
2019-03-04T01:03:45.322Z,95.75
2019-03-04T01:04:45.794Z,95.74
2019-03-04T01:05:46.266Z,95.75
2019-03-04T01:06:46.739Z,95.75
2019-03-04T01:07:47.212Z,95.73
2019-03-04T01:08:47.684Z,95.75
2019-03-04T01:09:48.154Z,95.75
2019-03-04T01:10:48.628Z,95.76
2019-03-04T01:11:49.099Z,95.75
2019-03-04T01:12:49.575Z,95.75
2019-03-04T01:13:50.043Z,95.75
2019-03-04T01:14:50.518Z,95.76
2019-03-04T01:15:50.991Z,95.73
2019-03-04T01:16:51.459Z,95.76
2019-03-04T01:17:51.933Z,95.72
2019-03-04T01:18:52.404Z,95.76
2019-03-04T01:19:52.878Z,95.76
2019-03-04T01:20:53.348Z,95.76
2019-03-04T01:21:54.160Z,95.76
2019-03-04T01:22:54.292Z,95.76
2019-03-04T01:23:54.766Z,95.74
2019-03-04T01:24:55.288Z,95.77
2019-03-04T01:25:55.709Z,95.77
2019-03-04T01:26:56.183Z,95.77
2019-03-04T01:27:56.661Z,95.77
2019-03-04T01:28:57.130Z,95.77
2019-03-04T01:29:57.598Z,95.73
2019-03-04T01:30:58.071Z,95.75
2019-03-04T01:31:58.545Z,95.77
2019-03-04T01:32:59.019Z,95.77
2019-03-04T01:33:59.485Z,95.77
2019-03-04T01:34:59.960Z,95.77
2019-03-04T01:36:00.432Z,95.76
2019-03-04T01:37:00.905Z,95.77
2019-03-04T01:38:01.383Z,95.78
2019-03-04T01:39:01.849Z,95.78
2019-03-04T01:40:02.325Z,95.78
2019-03-04T01:41:02.792Z,95.78
2019-03-04T01:42:03.265Z,95.78
2019-03-04T01:43:03.736Z,95.78
2019-03-04T01:44:04.209Z,95.78
2019-03-04T01:45:04.682Z,95.78
2019-03-04T01:46:05.160Z,95.79
2019-03-04T01:47:05.625Z,95.79
2019-03-04T01:48:06.099Z,95.79
2019-03-04T01:49:06.573Z,95.79
2019-03-04T01:50:07.050Z,95.79
2019-03-04T01:51:07.515Z,95.79
2019-03-04T01:52:07.989Z,95.79
2019-03-04T01:53:08.460Z,95.79
2019-03-04T01:54:08.931Z,95.79
2019-03-04T01:55:09.404Z,95.79
2019-03-04T01:56:09.877Z,95.79
2019-03-04T01:57:10.349Z,95.79
2019-03-04T01:58:10.820Z,95.79
2019-03-04T01:59:11.296Z,95.79
2019-03-04T02:00:11.767Z,95.79
2019-03-04T02:01:12.236Z,95.80
2019-03-04T02:02:12.709Z,95.80
2019-03-04T02:03:13.184Z,95.79
2019-03-04T02:04:13.656Z,95.80
2019-03-04T02:05:14.126Z,95.79
2019-03-04T02:06:14.598Z,95.80
2019-03-04T02:07:15.072Z,95.80
2019-03-04T02:08:15.542Z,95.80
2019-03-04T02:09:16.018Z,95.80
2019-03-04T02:10:16.487Z,95.80
2019-03-04T02:11:16.958Z,95.80
2019-03-04T02:12:17.431Z,95.80
2019-03-04T02:13:17.903Z,95.80
2019-03-04T02:14:18.377Z,95.80
2019-03-04T02:15:18.900Z,95.80
2019-03-04T02:16:19.316Z,95.80
2019-03-04T02:17:19.786Z,95.80
2019-03-04T02:18:20.308Z,95.80
2019-03-04T02:20:21.196Z,95.80
2019-03-04T02:21:21.666Z,95.81
2019-03-04T02:22:22.133Z,95.80
2019-03-04T02:23:22.603Z,95.81
2019-03-04T02:24:23.074Z,95.81
2019-03-04T02:25:23.541Z,95.81
2019-03-04T02:26:24.012Z,95.81
2019-03-04T02:27:24.478Z,95.81
2019-03-04T02:28:24.951Z,95.83
2019-03-04T02:29:25.414Z,95.81
2019-03-04T02:30:25.885Z,95.81
2019-03-04T02:31:26.353Z,95.81
2019-03-04T02:32:26.821Z,95.81
2019-03-04T02:33:27.287Z,95.81
2019-03-04T02:34:27.755Z,95.81
2019-03-04T02:35:28.224Z,95.82
2019-03-04T02:36:28.696Z,95.81
2019-03-04T02:37:29.160Z,95.81
2019-03-04T02:38:29.629Z,95.82
2019-03-04T02:39:30.095Z,95.82
2019-03-04T02:40:30.569Z,95.82
2019-03-04T02:41:31.032Z,95.82
2019-03-04T02:42:31.503Z,95.82
2019-03-04T02:43:31.969Z,95.82
2019-03-04T02:44:32.434Z,95.82
2019-03-04T02:45:32.902Z,95.82
2019-03-04T02:46:33.372Z,95.81
2019-03-04T02:47:33.840Z,95.81
2019-03-04T02:48:34.308Z,95.83
2019-03-04T02:49:34.781Z,95.82
2019-03-04T02:50:35.253Z,95.85
2019-03-04T02:51:35.711Z,95.81
2019-03-04T02:52:36.181Z,95.82
2019-03-04T02:53:36.650Z,95.83
2019-03-04T02:54:37.117Z,95.81
2019-03-04T02:55:37.587Z,95.81
2019-03-04T02:56:38.065Z,95.81
2019-03-04T02:57:38.523Z,95.81
2019-03-04T02:58:38.993Z,95.85
2019-03-04T02:59:39.461Z,95.83
2019-03-04T03:00:39.981Z,95.81
2019-03-04T03:01:40.399Z,95.80
2019-03-04T03:02:40.869Z,95.82
2019-03-04T03:03:41.341Z,95.81
2019-03-04T03:04:41.813Z,95.81
2019-03-04T03:05:42.281Z,95.80
2019-03-04T03:06:42.745Z,95.80
2019-03-04T03:07:43.218Z,95.80
2019-03-04T03:08:43.683Z,95.80
2019-03-04T03:09:44.152Z,95.82
2019-03-04T03:10:44.624Z,95.82
2019-03-04T03:11:45.095Z,95.80
2019-03-04T03:12:45.579Z,95.80
2019-03-04T03:13:46.033Z,95.80
2019-03-04T03:14:46.508Z,95.80
2019-03-04T03:15:46.973Z,95.83
2019-03-04T03:16:47.451Z,95.82
2019-03-04T03:17:47.910Z,95.80
2019-03-04T03:18:48.383Z,95.80
2019-03-04T03:19:48.859Z,95.84
2019-03-04T03:20:49.322Z,95.80
2019-03-04T03:21:49.792Z,95.82
2019-03-04T03:22:50.262Z,95.83
2019-03-04T03:23:50.736Z,95.82
2019-03-04T03:24:51.209Z,95.80
2019-03-04T03:25:51.673Z,95.80
2019-03-04T03:26:52.147Z,95.80
2019-03-04T03:27:52.617Z,95.82
2019-03-04T03:28:53.084Z,95.80
2019-03-04T03:29:53.555Z,95.82
2019-03-04T03:30:54.026Z,95.80
2019-03-04T03:31:54.509Z,95.82
2019-03-04T03:32:54.966Z,95.80
2019-03-04T03:33:55.447Z,95.82
2019-03-04T03:34:55.910Z,95.82
2019-03-04T03:35:56.379Z,95.80
2019-03-04T03:36:56.849Z,95.80
2019-03-04T03:37:57.327Z,95.80
2019-03-04T03:38:57.790Z,95.80
2019-03-04T03:39:58.267Z,95.80
2019-03-04T03:40:58.733Z,95.80
2019-03-04T03:41:59.204Z,95.80
2019-03-04T03:42:59.675Z,95.80
2019-03-04T03:44:00.149Z,95.80
2019-03-04T03:45:00.619Z,95.80
2019-03-04T03:46:01.138Z,95.80
2019-03-04T03:47:01.562Z,95.80
2019-03-04T03:48:02.031Z,95.80
2019-03-04T03:49:02.501Z,95.80
2019-03-04T03:50:02.973Z,95.80
2019-03-04T03:51:03.446Z,95.80
2019-03-04T03:52:03.915Z,95.79
2019-03-04T03:53:04.391Z,95.79
2019-03-04T03:54:04.859Z,95.79
2019-03-04T03:55:05.332Z,95.81
2019-03-04T03:56:05.800Z,95.79
2019-03-04T03:57:06.271Z,95.79
2019-03-04T03:58:06.742Z,95.79
2019-03-04T03:59:07.213Z,95.79
2019-03-04T04:00:07.686Z,95.79
2019-03-04T04:01:08.207Z,95.79
2019-03-04T04:02:08.633Z,95.79
2019-03-04T04:03:09.161Z,95.78
2019-03-04T04:04:09.571Z,95.79
2019-03-04T04:05:10.045Z,95.78
2019-03-04T04:06:10.519Z,95.78
2019-03-04T04:07:10.985Z,95.80
2019-03-04T04:08:11.456Z,95.78
2019-03-04T04:09:11.928Z,95.78
2019-03-04T04:10:12.398Z,95.78
2019-03-04T04:11:12.869Z,95.82
2019-03-04T04:12:13.342Z,95.80
2019-03-04T04:13:13.812Z,95.78
2019-03-04T04:14:14.285Z,95.78
2019-03-04T04:15:14.759Z,95.78
2019-03-04T04:16:15.357Z,95.78
2019-03-04T04:17:15.703Z,95.77
2019-03-04T04:18:16.171Z,95.78
2019-03-04T04:19:16.643Z,95.79
2019-03-04T04:20:17.120Z,95.79
2019-03-04T04:21:17.585Z,95.81
2019-03-04T04:22:18.057Z,95.77
2019-03-04T04:23:18.556Z,95.81
2019-03-04T04:24:19.203Z,95.77
2019-03-04T04:25:19.484Z,95.79
2019-03-04T04:26:19.998Z,95.77
2019-03-04T04:27:20.417Z,95.79
2019-03-04T04:28:20.892Z,95.77
2019-03-04T04:29:21.359Z,95.78
2019-03-04T04:30:21.830Z,95.77
2019-03-04T04:31:22.303Z,95.79
2019-03-04T04:32:22.781Z,95.77
2019-03-04T04:33:23.245Z,95.77
2019-03-04T04:34:23.717Z,95.76
2019-03-04T04:35:24.191Z,95.76
2019-03-04T04:36:24.661Z,95.77
2019-03-04T04:37:25.135Z,95.79
2019-03-04T04:38:25.606Z,95.78
2019-03-04T04:39:26.083Z,95.76
2019-03-04T04:40:26.550Z,95.76
2019-03-04T04:41:27.020Z,95.76
2019-03-04T04:42:27.492Z,95.76
2019-03-04T04:43:27.962Z,95.76
2019-03-04T04:44:28.435Z,95.76
2019-03-04T04:45:28.907Z,95.76
2019-03-04T04:46:29.431Z,95.76
2019-03-04T04:47:29.851Z,95.76
2019-03-04T04:48:30.325Z,95.76
2019-03-04T04:49:30.795Z,95.76
2019-03-04T04:50:31.274Z,95.76
2019-03-04T04:51:31.741Z,95.77
2019-03-04T04:52:32.213Z,95.76
2019-03-04T04:53:32.683Z,95.76
2019-03-04T04:54:33.154Z,95.76
2019-03-04T04:55:33.633Z,95.76
2019-03-04T04:56:34.098Z,95.75
2019-03-04T04:57:34.573Z,95.76
2019-03-04T04:58:35.043Z,95.76
2019-03-04T04:59:35.515Z,95.76
2019-03-04T05:00:35.986Z,95.75
2019-03-04T05:01:36.462Z,95.76
2019-03-04T05:02:36.938Z,95.77
2019-03-04T05:03:37.401Z,95.75
2019-03-04T05:04:37.873Z,95.76
2019-03-04T05:05:38.347Z,95.75
2019-03-04T05:06:38.816Z,95.75
2019-03-04T05:07:39.295Z,95.76
2019-03-04T05:08:39.762Z,95.76
2019-03-04T05:09:40.236Z,95.75
2019-03-04T05:10:40.705Z,95.75
2019-03-04T05:11:41.177Z,95.75
2019-03-04T05:12:41.653Z,95.75
2019-03-04T05:13:42.126Z,95.75
2019-03-04T05:14:42.593Z,95.74
2019-03-04T05:15:43.067Z,95.75
2019-03-04T05:16:43.589Z,95.75
2019-03-04T05:17:44.009Z,95.75
2019-03-04T05:18:44.482Z,95.75
2019-03-04T05:19:44.956Z,95.75
2019-03-04T05:20:45.424Z,95.75
2019-03-04T05:21:45.897Z,95.75
2019-03-04T05:22:46.369Z,95.75
2019-03-04T05:23:46.843Z,95.74
2019-03-04T05:24:47.316Z,95.74
2019-03-04T05:25:47.786Z,95.74
2019-03-04T05:26:48.258Z,95.74
2019-03-04T05:27:48.730Z,95.74
2019-03-04T05:28:49.203Z,95.74
2019-03-04T05:29:49.674Z,95.74
2019-03-04T05:30:50.145Z,95.75
2019-03-04T05:31:50.616Z,95.75
2019-03-04T05:32:51.097Z,95.74
2019-03-04T05:33:51.562Z,95.74
2019-03-04T05:34:52.032Z,95.74
2019-03-04T05:35:52.506Z,95.74
2019-03-04T05:36:52.977Z,95.74
2019-03-04T05:37:53.453Z,95.74
2019-03-04T05:38:53.921Z,95.74
2019-03-04T05:39:54.396Z,95.74
2019-03-04T05:40:54.867Z,95.74
2019-03-04T05:41:55.679Z,95.74
2019-03-04T05:42:55.810Z,95.74
2019-03-04T05:43:56.287Z,95.74
2019-03-04T05:44:56.756Z,95.74
2019-03-04T05:45:57.227Z,95.74
2019-03-04T05:46:57.699Z,95.74
2019-03-04T05:47:58.170Z,95.74
2019-03-04T05:48:58.642Z,95.74
2019-03-04T05:49:59.116Z,95.74
2019-03-04T05:50:59.591Z,95.75
2019-03-04T05:52:00.060Z,95.74
2019-03-04T05:53:00.534Z,95.74
2019-03-04T05:54:01.008Z,95.74
2019-03-04T05:55:01.488Z,95.74
2019-03-04T05:56:01.947Z,95.74
2019-03-04T05:57:02.420Z,95.74
2019-03-04T05:59:03.362Z,95.74
2019-03-04T06:00:03.840Z,95.74
2019-03-04T06:01:04.308Z,95.74
2019-03-04T06:02:04.832Z,95.74
2019-03-04T06:03:05.253Z,95.74
2019-03-04T06:04:05.726Z,95.74
2019-03-04T06:05:06.199Z,95.74
2019-03-04T06:06:06.670Z,95.74
2019-03-04T06:07:07.142Z,95.74
2019-03-04T06:08:07.613Z,95.74
2019-03-04T06:09:08.087Z,95.74
2019-03-04T06:10:08.558Z,95.74
2019-03-04T06:11:09.030Z,95.74
2019-03-04T06:12:09.501Z,95.74
2019-03-04T06:13:09.975Z,95.74
2019-03-04T06:14:10.448Z,95.74
2019-03-04T06:15:10.919Z,95.74
2019-03-04T06:16:11.390Z,95.74
2019-03-04T06:17:11.862Z,95.74
2019-03-04T06:18:12.335Z,95.74
2019-03-04T06:19:12.808Z,95.74
2019-03-04T06:20:13.282Z,95.74
2019-03-04T06:21:13.750Z,95.74
2019-03-04T06:22:14.225Z,95.74
2019-03-04T06:23:14.696Z,95.74
2019-03-04T06:24:15.167Z,95.73
2019-03-04T06:25:15.641Z,95.74
2019-03-04T06:26:16.113Z,95.73
2019-03-04T06:27:16.583Z,95.74
2019-03-04T06:28:17.056Z,95.74
2019-03-04T06:29:17.530Z,95.74
2019-03-04T06:30:18.001Z,95.74
2019-03-04T06:31:18.703Z,95.74
2019-03-04T06:32:19.046Z,95.74
2019-03-04T06:33:19.621Z,95.74
2019-03-04T06:34:19.890Z,95.74
2019-03-04T06:35:20.367Z,95.73
2019-03-04T06:36:20.833Z,95.74
2019-03-04T06:37:21.311Z,95.73
2019-03-04T06:38:21.778Z,95.73
2019-03-04T06:39:22.248Z,95.73
2019-03-04T06:40:22.726Z,95.73
2019-03-04T06:41:23.193Z,95.73
2019-03-04T06:42:23.665Z,95.73
2019-03-04T06:43:24.135Z,95.73
2019-03-04T06:44:24.611Z,95.73
2019-03-04T06:45:25.085Z,95.73
2019-03-04T06:46:25.559Z,95.73
2019-03-04T06:47:26.026Z,95.73
2019-03-04T06:48:26.499Z,95.73
2019-03-04T06:49:26.973Z,95.73
2019-03-04T06:50:27.445Z,95.73
2019-03-04T06:51:27.915Z,95.73
2019-03-04T06:52:28.387Z,95.73
2019-03-04T06:53:28.863Z,95.73
2019-03-04T06:54:29.331Z,95.73
2019-03-04T06:55:29.802Z,95.73
2019-03-04T06:56:30.275Z,95.73
2019-03-04T06:57:30.748Z,95.73
2019-03-04T06:58:31.218Z,95.73
2019-03-04T06:59:31.690Z,95.73
2019-03-04T07:00:32.164Z,95.71
2019-03-04T07:01:32.636Z,95.73
2019-03-04T07:02:33.108Z,95.73
2019-03-04T07:03:33.580Z,95.73
2019-03-04T07:04:34.053Z,95.73
2019-03-04T07:05:34.523Z,95.71
2019-03-04T07:06:34.997Z,95.70
2019-03-04T07:07:35.470Z,95.71
2019-03-04T07:08:35.940Z,95.73
2019-03-04T07:09:36.411Z,95.73
2019-03-04T07:10:36.885Z,95.73
2019-03-04T07:11:37.356Z,95.72
2019-03-04T07:12:37.828Z,95.69
2019-03-04T07:13:38.300Z,95.73
2019-03-04T07:14:38.772Z,95.69
2019-03-04T07:15:39.245Z,95.73
2019-03-04T07:16:39.717Z,95.69
2019-03-04T07:17:40.191Z,95.69
2019-03-04T07:18:40.660Z,95.73
2019-03-04T07:19:41.131Z,95.69
2019-03-04T07:20:41.605Z,95.69
2019-03-04T07:21:42.079Z,95.73
2019-03-04T07:22:42.550Z,95.73
2019-03-04T07:23:43.018Z,95.73
2019-03-04T07:24:43.493Z,95.73
2019-03-04T07:25:43.965Z,95.73
2019-03-04T07:26:44.440Z,95.71
2019-03-04T07:27:44.910Z,95.73
2019-03-04T07:28:45.383Z,95.70
2019-03-04T07:29:45.853Z,95.71
2019-03-04T07:30:46.328Z,95.71
2019-03-04T07:31:46.796Z,95.71
2019-03-04T07:32:47.267Z,95.73
2019-03-04T07:33:47.740Z,95.73
2019-03-04T07:34:48.212Z,95.73
2019-03-04T07:35:48.683Z,95.73
2019-03-04T07:36:49.159Z,95.73
2019-03-04T07:37:49.628Z,95.71
2019-03-04T07:38:50.100Z,95.71
2019-03-04T07:39:50.573Z,95.69
2019-03-04T07:40:51.044Z,95.70
2019-03-04T07:42:51.991Z,95.71
2019-03-04T07:43:52.803Z,95.73
2019-03-04T07:44:52.933Z,95.74
2019-03-04T07:45:53.405Z,95.71
2019-03-04T07:46:53.876Z,95.71
2019-03-04T07:47:54.348Z,95.69
2019-03-04T07:48:54.827Z,95.70
2019-03-04T07:49:55.293Z,95.74
2019-03-04T07:50:55.764Z,95.73
2019-03-04T07:51:56.236Z,95.70
2019-03-04T07:52:56.708Z,95.70
2019-03-04T07:53:57.181Z,95.74
2019-03-04T07:54:57.653Z,95.72
2019-03-04T07:55:58.124Z,95.74
2019-03-04T07:56:58.602Z,95.74
2019-03-04T07:57:59.069Z,95.74
2019-03-04T07:58:59.539Z,95.73
2019-03-04T08:00:00.015Z,95.74
2019-03-04T08:01:00.483Z,95.72
2019-03-04T08:02:00.955Z,95.75
2019-03-04T08:03:01.430Z,95.75
2019-03-04T08:04:01.900Z,95.75
2019-03-04T08:05:02.376Z,95.74
2019-03-04T08:06:02.844Z,95.71
2019-03-04T08:07:03.316Z,95.75
2019-03-04T08:08:03.789Z,95.75
2019-03-04T08:09:04.260Z,95.75
2019-03-04T08:10:04.733Z,95.76
2019-03-04T08:11:05.208Z,95.75
2019-03-04T08:12:05.674Z,95.76
2019-03-04T08:13:06.149Z,95.76
2019-03-04T08:14:06.621Z,95.73
2019-03-04T08:15:07.092Z,95.76
2019-03-04T08:16:07.564Z,95.76
2019-03-04T08:17:08.038Z,95.74
2019-03-04T08:18:08.510Z,95.76
2019-03-04T08:19:08.983Z,95.76
2019-03-04T08:20:09.452Z,95.76
2019-03-04T08:21:09.924Z,95.76
2019-03-04T08:22:10.397Z,95.77
2019-03-04T08:23:10.878Z,95.77
2019-03-04T08:24:11.340Z,95.75
2019-03-04T08:25:11.816Z,95.75
2019-03-04T08:26:12.284Z,95.77
2019-03-04T08:27:12.757Z,95.77
2019-03-04T08:28:13.229Z,95.77
2019-03-04T08:29:13.700Z,95.77
2019-03-04T08:30:14.173Z,95.78
2019-03-04T08:31:14.644Z,95.77
2019-03-04T08:32:15.116Z,95.77
2019-03-04T08:33:15.591Z,95.76
2019-03-04T08:34:16.065Z,95.77
2019-03-04T08:35:16.534Z,95.78
2019-03-04T08:36:17.005Z,95.78
2019-03-04T08:37:17.476Z,95.78
2019-03-04T08:38:17.949Z,95.78
2019-03-04T08:39:18.422Z,95.79
2019-03-04T08:40:18.894Z,95.79
2019-03-04T08:41:19.393Z,95.79
2019-03-04T08:42:19.840Z,95.79
2019-03-04T08:43:20.312Z,95.79
2019-03-04T08:44:20.782Z,95.79
2019-03-04T08:45:21.258Z,95.79
2019-03-04T08:46:21.727Z,95.79
2019-03-04T08:47:22.199Z,95.79
2019-03-04T08:48:22.670Z,95.79
2019-03-04T08:49:23.141Z,95.80
2019-03-04T08:50:23.616Z,95.80
2019-03-04T08:51:24.087Z,95.80
2019-03-04T08:52:24.558Z,95.80
2019-03-04T08:53:25.030Z,95.80
2019-03-04T08:54:25.506Z,95.80
2019-03-04T08:55:25.976Z,95.80
2019-03-04T08:56:26.448Z,95.80
2019-03-04T08:57:26.921Z,95.80
2019-03-04T08:58:27.392Z,95.81
2019-03-04T08:59:27.867Z,95.81
2019-03-04T09:00:28.338Z,95.80
2019-03-04T09:01:31.142Z,95.81
2019-03-04T09:02:29.280Z,95.81
2019-03-04T09:03:29.806Z,95.81
2019-03-04T09:04:30.428Z,95.81
2019-03-04T09:05:30.698Z,95.82
2019-03-04T09:06:31.166Z,95.82
2019-03-04T09:07:31.643Z,95.82
2019-03-04T09:08:32.111Z,95.82
2019-03-04T09:09:32.587Z,95.84
2019-03-04T09:10:33.056Z,95.82
2019-03-04T09:11:33.530Z,95.82
2019-03-04T09:12:35.911Z,95.82
2019-03-04T09:13:34.487Z,95.82
2019-03-04T09:14:34.948Z,95.83
2019-03-04T09:15:35.420Z,95.82
2019-03-04T09:16:35.890Z,95.83
2019-03-04T09:17:36.363Z,95.83
2019-03-04T09:18:36.886Z,95.83
2019-03-04T09:19:37.307Z,95.83
2019-03-04T09:20:37.785Z,95.85
2019-03-04T09:21:38.251Z,95.87
2019-03-04T09:22:38.732Z,95.86
2019-03-04T09:23:39.198Z,95.84
2019-03-04T09:24:39.668Z,95.84
2019-03-04T09:25:40.140Z,95.84
2019-03-04T09:26:40.615Z,95.84
2019-03-04T09:27:41.084Z,95.86
2019-03-04T09:28:41.608Z,95.84
2019-03-04T09:29:42.028Z,95.88
2019-03-04T09:30:42.501Z,95.84
2019-03-04T09:31:42.974Z,95.89
2019-03-04T09:32:43.446Z,95.87
2019-03-04T09:33:43.970Z,95.89
2019-03-04T09:34:44.394Z,95.89
2019-03-04T09:35:44.861Z,95.89
2019-03-04T09:36:45.334Z,95.89
2019-03-04T09:37:45.810Z,95.87
2019-03-04T09:38:46.279Z,95.90
2019-03-04T09:39:46.751Z,95.90
2019-03-04T09:40:47.225Z,95.90
2019-03-04T09:41:47.694Z,95.90
2019-03-04T09:42:48.168Z,95.90
2019-03-04T09:43:48.641Z,95.89
2019-03-04T09:44:49.111Z,95.88
2019-03-04T09:45:49.587Z,95.91
2019-03-04T09:46:50.056Z,95.89
2019-03-04T09:47:50.530Z,95.91
2019-03-04T09:48:51.000Z,95.91
2019-03-04T09:49:51.472Z,95.91
2019-03-04T09:50:51.947Z,95.92
2019-03-04T09:51:52.417Z,95.92
2019-03-04T09:52:52.890Z,95.92
2019-03-04T09:53:53.366Z,95.92
2019-03-04T09:54:53.837Z,95.93
2019-03-04T09:55:54.307Z,95.93
2019-03-04T09:56:54.779Z,95.93
2019-03-04T09:57:55.251Z,95.93
2019-03-04T09:58:55.724Z,95.93
2019-03-04T09:59:56.196Z,95.94
2019-03-04T10:00:56.667Z,95.94
2019-03-04T10:01:57.140Z,95.93
2019-03-04T10:02:57.614Z,95.94
2019-03-04T10:03:58.088Z,95.96
2019-03-04T10:04:58.556Z,95.94
2019-03-04T10:05:59.029Z,95.96
2019-03-04T10:06:59.501Z,95.95
2019-03-04T10:07:59.976Z,95.98
2019-03-04T10:09:00.443Z,95.99
2019-03-04T10:10:00.924Z,95.98
2019-03-04T10:11:01.391Z,95.96
2019-03-04T10:12:01.862Z,96.00
2019-03-04T10:13:02.334Z,96.00
2019-03-04T10:14:02.810Z,96.02
2019-03-04T10:15:08.605Z,95.98
2019-03-04T10:16:03.752Z,96.00
2019-03-04T10:17:04.223Z,96.01
2019-03-04T10:18:04.696Z,96.01
2019-03-04T10:19:05.168Z,95.97
2019-03-04T10:20:05.647Z,96.01
2019-03-04T10:21:06.110Z,96.02
2019-03-04T10:22:06.585Z,96.01
2019-03-04T10:23:07.056Z,96.02
2019-03-04T10:24:07.529Z,96.02
2019-03-04T10:25:08.001Z,96.02
2019-03-04T10:26:08.477Z,96.02
2019-03-04T10:27:08.946Z,96.02
2019-03-04T10:28:09.416Z,96.02
2019-03-04T10:29:09.889Z,96.02
2019-03-04T10:30:10.362Z,96.03
2019-03-04T10:31:10.834Z,96.02
2019-03-04T10:32:11.307Z,96.03
2019-03-04T10:33:11.776Z,96.03
2019-03-04T10:34:12.251Z,96.03
2019-03-04T10:35:12.724Z,96.03
2019-03-04T10:36:13.194Z,96.03
2019-03-04T10:37:13.666Z,96.04
2019-03-04T10:38:22.330Z,96.04
2019-03-04T10:39:14.611Z,96.02
2019-03-04T10:40:15.692Z,96.04
2019-03-04T10:41:15.553Z,96.04
2019-03-04T10:42:16.031Z,96.07
2019-03-04T10:43:16.500Z,96.04
2019-03-04T10:44:16.976Z,96.04
2019-03-04T10:45:18.310Z,96.04
2019-03-04T10:46:17.915Z,96.05
2019-03-04T10:47:18.389Z,96.04
2019-03-04T10:48:18.860Z,96.06
2019-03-04T10:49:19.332Z,96.05
2019-03-04T10:50:19.804Z,96.04
2019-03-04T10:51:20.275Z,96.08
2019-03-04T10:52:20.750Z,96.05
2019-03-04T10:53:21.219Z,96.08
2019-03-04T10:54:21.741Z,96.08
2019-03-04T10:55:22.168Z,96.05
2019-03-04T10:56:22.637Z,96.05
2019-03-04T10:57:23.109Z,96.05
2019-03-04T10:58:23.582Z,96.05
2019-03-04T10:59:24.052Z,96.06
2019-03-04T11:00:24.525Z,96.10
2019-03-04T11:01:30.410Z,96.06
2019-03-04T11:02:25.469Z,96.10
2019-03-04T11:03:25.941Z,96.10
2019-03-04T11:04:26.754Z,96.10
2019-03-04T11:05:26.891Z,96.10
2019-03-04T11:06:27.357Z,96.11
2019-03-04T11:07:27.833Z,96.11
2019-03-04T11:08:28.301Z,96.12
2019-03-04T11:09:28.772Z,96.11
2019-03-04T11:10:29.245Z,96.11
2019-03-04T11:11:30.260Z,96.12
2019-03-04T11:12:30.189Z,96.11
2019-03-04T11:13:30.659Z,96.12
2019-03-04T11:14:31.134Z,96.12
2019-03-04T11:15:31.609Z,96.12
2019-03-04T11:16:32.084Z,96.12
2019-03-04T11:17:32.550Z,96.12
2019-03-04T11:18:33.023Z,96.12
2019-03-04T11:19:33.545Z,96.12
2019-03-04T11:20:33.966Z,96.16
2019-03-04T11:21:34.438Z,96.13
2019-03-04T11:22:34.910Z,96.12
2019-03-04T11:23:35.393Z,96.13
2019-03-04T11:24:35.858Z,96.17
2019-03-04T11:25:36.326Z,96.16
2019-03-04T11:26:36.798Z,96.14
2019-03-04T11:27:37.272Z,96.18
2019-03-04T11:28:37.742Z,96.16
2019-03-04T11:29:38.215Z,96.14
2019-03-04T11:30:38.685Z,96.16
2019-03-04T11:31:39.162Z,96.18
2019-03-04T11:32:39.631Z,96.18
2019-03-04T11:33:40.102Z,96.19
2019-03-04T11:34:42.665Z,96.15
2019-03-04T11:35:41.054Z,96.19
2019-03-04T11:36:41.520Z,96.19
2019-03-04T11:37:41.991Z,96.18
2019-03-04T11:38:42.464Z,96.19
2019-03-04T11:39:42.935Z,96.19
2019-03-04T11:40:43.408Z,96.19
2019-03-04T11:41:43.880Z,96.19
2019-03-04T11:42:44.369Z,96.20
2019-03-04T11:43:44.826Z,96.18
2019-03-04T11:44:45.297Z,96.19
2019-03-04T11:45:45.767Z,96.18
2019-03-04T11:46:46.246Z,96.20
2019-03-04T11:47:46.715Z,96.19
2019-03-04T11:48:47.186Z,96.19
2019-03-04T11:49:47.707Z,96.20
2019-03-04T11:50:48.130Z,96.19
2019-03-04T11:51:48.604Z,96.18
2019-03-04T11:52:49.074Z,96.19
2019-03-04T11:53:49.549Z,96.20
2019-03-04T11:54:50.019Z,96.19
2019-03-04T11:55:50.490Z,96.19
2019-03-04T11:56:50.964Z,96.20
2019-03-04T11:57:51.433Z,96.20
2019-03-04T11:58:51.907Z,96.20
2019-03-04T11:59:52.380Z,96.20
2019-03-04T12:00:52.853Z,96.20
2019-03-04T12:01:53.323Z,96.19
2019-03-04T12:02:53.795Z,96.20
2019-03-04T12:03:54.270Z,96.19
2019-03-04T12:04:54.791Z,96.20
2019-03-04T12:05:55.215Z,96.20
2019-03-04T12:06:55.687Z,96.19
2019-03-04T12:07:56.160Z,96.19
2019-03-04T12:08:56.630Z,96.20
2019-03-04T12:09:57.101Z,96.20
2019-03-04T12:10:57.577Z,96.20
2019-03-04T12:11:58.047Z,96.24
2019-03-04T12:12:58.519Z,96.20
2019-03-04T12:13:58.992Z,96.20
2019-03-04T12:14:59.472Z,96.20
2019-03-04T12:15:59.938Z,96.27
2019-03-04T12:17:00.410Z,96.20
2019-03-04T12:18:00.880Z,96.20
2019-03-04T12:19:01.353Z,96.21
2019-03-04T12:20:01.830Z,96.24
2019-03-04T12:21:02.299Z,96.21
2019-03-04T12:22:02.771Z,96.21
2019-03-04T12:23:03.241Z,96.24
2019-03-04T12:24:03.718Z,96.20
2019-03-04T12:25:04.241Z,96.21
2019-03-04T12:26:04.659Z,96.21
2019-03-04T12:27:05.133Z,96.24
2019-03-04T12:28:05.608Z,96.24
2019-03-04T12:29:06.079Z,96.21
2019-03-04T12:30:06.548Z,96.21
2019-03-04T12:31:07.032Z,96.25
2019-03-04T12:32:07.493Z,96.21
2019-03-04T12:33:07.967Z,96.21
2019-03-04T12:34:08.438Z,96.22
2019-03-04T12:35:08.910Z,96.26
2019-03-04T12:36:09.382Z,96.25
2019-03-04T12:37:09.860Z,96.24
2019-03-04T12:38:10.326Z,96.22
2019-03-04T12:39:10.797Z,96.22
2019-03-04T12:40:11.272Z,96.24
2019-03-04T12:41:11.743Z,96.22
2019-03-04T12:42:12.213Z,96.26
2019-03-04T12:43:12.686Z,96.26
2019-03-04T12:44:13.156Z,96.26
2019-03-04T12:46:14.098Z,96.23
2019-03-04T12:47:16.316Z,96.27
2019-03-04T12:48:15.039Z,96.24
2019-03-04T12:49:15.511Z,96.20
2019-03-04T12:50:15.991Z,96.28
2019-03-04T12:51:23.125Z,96.24
2019-03-04T12:52:16.922Z,96.28
2019-03-04T12:53:17.387Z,96.20
2019-03-04T12:54:17.863Z,96.24
2019-03-04T12:55:18.666Z,96.26
2019-03-04T12:56:18.800Z,96.22
2019-03-04T12:57:19.262Z,96.25
2019-03-04T12:58:19.732Z,96.28
2019-03-04T12:59:20.201Z,96.29
2019-03-04T13:00:20.678Z,96.25
2019-03-04T13:01:21.138Z,96.24
2019-03-04T13:02:21.605Z,96.26